Terminal Aerodrome Forecast
Issued by NWS

Home | Current Version | Previous Version | Text Only | Print | Product List | Glossary On
Versions: 1 2 3 4 5 6 7 8 9 10 11 12 13
113
FTUS44 KBMX 252018 AAA
TAFTCL
TAF AMD
KTCL 252018Z 2520/2618 VRB04KT P6SM VCTS SCT070CB
     FM260100 00000KT P6SM FEW070
     FM261500 VRB03KT P6SM FEW120=

USA.gov is the U.S. government's official web portal to all federal, state and local government web resources and services.